createdAt,value
2022-07-28T00:00:13.020Z,14.10
2022-07-28T00:02:40.438Z,14.10
2022-07-28T00:05:08.315Z,14.10
2022-07-28T00:07:36.154Z,14.10
2022-07-28T00:10:04.052Z,14.10
2022-07-28T00:12:32.819Z,14.10
2022-07-28T00:15:00.250Z,14.10
2022-07-28T00:17:27.643Z,14.10
2022-07-28T00:19:54.991Z,14.10
2022-07-28T00:22:22.335Z,14.10
2022-07-28T00:24:50.137Z,14.10
2022-07-28T00:27:19.467Z,14.10
2022-07-28T00:29:50.503Z,14.00
2022-07-28T00:32:20.894Z,14.10
2022-07-28T00:34:48.521Z,14.00
2022-07-28T00:37:15.848Z,14.00
2022-07-28T00:39:44.029Z,14.00
2022-07-28T00:42:12.545Z,14.00
2022-07-28T00:44:42.214Z,14.00
2022-07-28T00:47:09.673Z,13.90
2022-07-28T00:49:37.174Z,13.80
2022-07-28T00:52:06.277Z,13.80
2022-07-28T00:54:34.005Z,13.80
2022-07-28T00:57:01.351Z,13.70
2022-07-28T00:59:28.993Z,13.70
2022-07-28T01:01:56.950Z,13.60
2022-07-28T01:04:25.861Z,13.60
2022-07-28T01:07:09.146Z,13.50
2022-07-28T01:10:09.062Z,13.50
2022-07-28T01:12:57.104Z,13.40
2022-07-28T01:15:41.096Z,13.40
2022-07-28T01:18:12.733Z,13.30
2022-07-28T01:20:45.680Z,13.20
2022-07-28T01:23:13.069Z,13.20
2022-07-28T01:26:11.441Z,13.20
2022-07-28T01:29:11.331Z,13.10
2022-07-28T01:31:44.495Z,13.10
2022-07-28T01:34:17.818Z,13.10
2022-07-28T01:36:55.302Z,13.00
2022-07-28T01:39:31.061Z,13.00
2022-07-28T01:41:59.765Z,13.00
2022-07-28T01:44:28.607Z,12.90
2022-07-28T01:46:58.256Z,12.90
2022-07-28T01:49:28.288Z,12.90
2022-07-28T01:51:57.938Z,13.00
2022-07-28T01:54:28.728Z,12.90
2022-07-28T01:56:57.758Z,13.00
2022-07-28T01:59:26.537Z,13.00
2022-07-28T02:01:54.791Z,13.00
2022-07-28T02:04:24.793Z,13.00
2022-07-28T02:06:54.279Z,13.00
2022-07-28T02:09:23.541Z,13.00
2022-07-28T02:11:54.460Z,13.00
2022-07-28T02:14:27.884Z,13.00
2022-07-28T02:16:58.485Z,13.00
2022-07-28T02:19:27.888Z,13.00
2022-07-28T02:21:55.943Z,13.10
2022-07-28T02:24:27.288Z,13.10
2022-07-28T02:27:06.406Z,13.10
2022-07-28T02:29:50.765Z,13.10
2022-07-28T02:32:29.666Z,13.20
2022-07-28T02:35:09.486Z,13.10
2022-07-28T02:37:40.403Z,13.20
2022-07-28T02:40:15.399Z,13.20
2022-07-28T02:42:47.323Z,13.20
2022-07-28T02:45:16.569Z,13.20
2022-07-28T02:47:53.599Z,13.20
2022-07-28T02:50:23.560Z,13.10
2022-07-28T02:52:53.243Z,13.20
2022-07-28T02:55:21.123Z,13.20
2022-07-28T02:57:53.267Z,13.20
2022-07-28T03:00:25.580Z,13.20
2022-07-28T03:02:55.198Z,13.20
2022-07-28T03:05:23.063Z,13.20
2022-07-28T03:07:53.039Z,13.20
2022-07-28T03:10:33.707Z,13.20
2022-07-28T03:13:02.721Z,13.30
2022-07-28T03:15:31.247Z,13.30
2022-07-28T03:17:59.276Z,13.20
2022-07-28T03:20:26.950Z,13.30
2022-07-28T03:22:54.355Z,13.30
2022-07-28T03:25:37.969Z,13.30
2022-07-28T03:28:08.488Z,13.30
2022-07-28T03:30:42.282Z,13.30
2022-07-28T03:33:09.983Z,13.30
2022-07-28T03:35:40.245Z,13.40
2022-07-28T03:38:21.362Z,13.40
2022-07-28T03:40:49.642Z,13.40
2022-07-28T03:43:22.904Z,13.40
2022-07-28T03:45:50.722Z,13.40
2022-07-28T03:48:18.199Z,13.50
2022-07-28T03:50:45.732Z,13.50
2022-07-28T03:53:31.259Z,13.60
2022-07-28T03:55:58.815Z,13.60
2022-07-28T03:58:28.577Z,13.60
2022-07-28T04:00:57.280Z,13.60
2022-07-28T04:03:42.709Z,13.60
2022-07-28T04:06:12.057Z,13.70
2022-07-28T04:08:39.432Z,13.80
2022-07-28T04:11:07.259Z,13.80
2022-07-28T04:13:36.939Z,13.80
2022-07-28T04:16:05.291Z,13.90
2022-07-28T04:18:32.893Z,13.90
2022-07-28T04:21:00.203Z,13.90
2022-07-28T04:23:27.680Z,13.90
2022-07-28T04:25:55.539Z,14.00
2022-07-28T04:28:23.207Z,14.00
2022-07-28T04:30:50.785Z,14.00
2022-07-28T04:33:19.697Z,14.00
2022-07-28T04:35:47.426Z,14.10
2022-07-28T04:38:15.279Z,14.10
2022-07-28T04:40:42.776Z,14.20
2022-07-28T04:43:13.272Z,14.30
2022-07-28T04:45:46.070Z,14.20
2022-07-28T04:48:22.325Z,14.20
2022-07-28T04:50:51.435Z,14.40
2022-07-28T04:53:19.366Z,14.40
2022-07-28T04:55:46.753Z,14.50
2022-07-28T04:58:14.883Z,14.50
2022-07-28T05:00:44.241Z,14.50
2022-07-28T05:03:11.542Z,14.50
2022-07-28T05:05:38.923Z,14.50
2022-07-28T05:08:06.568Z,14.60
2022-07-28T05:10:33.856Z,14.70
2022-07-28T05:13:06.791Z,14.70
2022-07-28T05:15:34.888Z,14.80
2022-07-28T05:18:02.409Z,14.90
2022-07-28T05:20:29.788Z,15.00
2022-07-28T05:22:58.111Z,15.00
2022-07-28T05:25:26.008Z,14.90
2022-07-28T05:27:54.782Z,15.20
2022-07-28T05:30:22.563Z,15.30
2022-07-28T05:32:50.925Z,15.30
2022-07-28T05:35:18.329Z,15.20
2022-07-28T05:37:45.699Z,15.10
2022-07-28T05:40:15.653Z,15.20
2022-07-28T05:42:44.040Z,15.40
2022-07-28T05:45:15.853Z,15.40
2022-07-28T05:47:46.494Z,15.60
2022-07-28T05:50:17.998Z,15.60
2022-07-28T05:52:46.613Z,15.50
2022-07-28T05:55:15.095Z,15.60
2022-07-28T05:57:42.648Z,15.80
2022-07-28T06:00:16.576Z,15.80
2022-07-28T06:02:49.739Z,15.80
2022-07-28T06:05:19.062Z,16.10
2022-07-28T06:07:47.877Z,16.10
2022-07-28T06:10:17.402Z,16.30
2022-07-28T06:12:47.364Z,16.10
2022-07-28T06:15:19.533Z,16.20
2022-07-28T06:17:47.004Z,16.10
2022-07-28T06:20:14.958Z,16.10
2022-07-28T06:22:47.319Z,16.20
2022-07-28T06:25:21.044Z,16.20
2022-07-28T06:27:49.027Z,16.50
2022-07-28T06:30:17.120Z,16.20
2022-07-28T06:32:45.630Z,16.20
2022-07-28T06:35:17.040Z,16.30
2022-07-28T06:37:45.689Z,16.40
2022-07-28T06:40:14.349Z,16.40
2022-07-28T06:42:42.823Z,16.50
2022-07-28T06:45:19.557Z,16.70
2022-07-28T06:47:53.581Z,16.80
2022-07-28T06:50:26.049Z,17.00
2022-07-28T06:52:55.617Z,16.80
2022-07-28T06:55:23.142Z,16.90
2022-07-28T06:57:50.583Z,16.90
2022-07-28T07:00:18.095Z,17.00
2022-07-28T07:02:46.340Z,16.90
2022-07-28T07:05:14.214Z,16.70
2022-07-28T07:07:43.570Z,16.50
2022-07-28T07:10:11.741Z,16.50
2022-07-28T07:12:39.436Z,16.60
2022-07-28T07:15:07.531Z,16.60
2022-07-28T07:17:37.724Z,16.50
2022-07-28T07:20:07.377Z,16.60
2022-07-28T07:22:35.391Z,16.70
2022-07-28T07:25:11.008Z,16.90
2022-07-28T07:27:39.344Z,17.20
2022-07-28T07:30:08.624Z,17.20
2022-07-28T07:32:36.385Z,17.20
2022-07-28T07:35:04.239Z,17.10
2022-07-28T07:37:34.613Z,17.10
2022-07-28T07:40:03.205Z,17.10
2022-07-28T07:42:30.494Z,17.00
2022-07-28T07:44:57.921Z,16.80
2022-07-28T07:47:25.361Z,16.70
2022-07-28T07:49:52.738Z,16.80
2022-07-28T07:52:20.202Z,17.10
2022-07-28T07:54:47.577Z,17.50
2022-07-28T07:57:15.070Z,17.80
2022-07-28T07:59:42.438Z,18.00
2022-07-28T08:02:10.058Z,17.90
2022-07-28T08:04:38.510Z,18.00
2022-07-28T08:07:07.081Z,18.20
2022-07-28T08:09:35.348Z,18.50
2022-07-28T08:12:03.171Z,18.20
2022-07-28T08:14:30.772Z,18.10
2022-07-28T08:16:59.641Z,18.30
2022-07-28T08:19:27.547Z,18.00
2022-07-28T08:21:55.822Z,18.20
2022-07-28T08:24:31.671Z,18.20
2022-07-28T08:27:02.071Z,17.90
2022-07-28T08:29:29.781Z,17.60
2022-07-28T08:31:57.594Z,17.30
2022-07-28T08:34:28.455Z,17.10
2022-07-28T08:37:02.529Z,17.00
2022-07-28T08:39:31.404Z,17.00
2022-07-28T08:42:18.481Z,17.50
2022-07-28T08:44:55.091Z,18.00
2022-07-28T08:47:22.738Z,18.00
2022-07-28T08:49:52.177Z,18.20
2022-07-28T08:52:21.991Z,18.00
2022-07-28T08:54:51.348Z,18.00
2022-07-28T08:57:35.603Z,17.70
2022-07-28T09:00:04.780Z,17.40
2022-07-28T09:02:33.082Z,17.10
2022-07-28T09:05:00.544Z,17.00
2022-07-28T09:07:27.932Z,17.10
2022-07-28T09:09:57.349Z,17.10
2022-07-28T09:12:30.382Z,17.50
2022-07-28T09:14:57.713Z,18.10
2022-07-28T09:17:25.049Z,18.50
2022-07-28T09:19:52.464Z,18.60
2022-07-28T09:22:19.808Z,18.50
2022-07-28T09:24:47.187Z,18.70
2022-07-28T09:27:15.984Z,18.60
2022-07-28T09:29:48.578Z,18.50
2022-07-28T09:32:17.684Z,18.60
2022-07-28T09:34:52.037Z,19.20
2022-07-28T09:37:26.983Z,19.30
2022-07-28T09:39:59.731Z,19.40
2022-07-28T09:42:44.883Z,19.90
2022-07-28T09:45:23.004Z,19.60
2022-07-28T09:48:10.560Z,19.50
2022-07-28T09:50:39.588Z,19.60
2022-07-28T09:53:28.318Z,19.50
2022-07-28T09:55:58.561Z,19.40
2022-07-28T09:58:26.912Z,19.30
2022-07-28T10:01:16.109Z,19.40
2022-07-28T10:03:48.936Z,19.30
2022-07-28T10:06:24.623Z,19.50
2022-07-28T10:08:53.586Z,19.50
2022-07-28T10:11:25.038Z,19.60
2022-07-28T10:14:04.998Z,19.70
2022-07-28T10:16:47.124Z,20.00
2022-07-28T10:19:14.425Z,20.00
2022-07-28T10:21:45.353Z,19.50
2022-07-28T10:24:22.341Z,19.80
2022-07-28T10:26:51.023Z,19.50
2022-07-28T10:29:21.942Z,19.30
2022-07-28T10:31:54.475Z,19.80
2022-07-28T10:34:25.498Z,19.90
2022-07-28T10:36:56.103Z,20.30
2022-07-28T10:39:26.433Z,20.40
2022-07-28T10:41:54.358Z,20.60
2022-07-28T10:44:23.133Z,20.60
2022-07-28T10:46:50.953Z,20.40
2022-07-28T10:49:19.330Z,20.00
2022-07-28T10:52:02.339Z,20.10
2022-07-28T10:55:03.757Z,20.10
2022-07-28T10:57:32.440Z,21.10
2022-07-28T11:00:13.389Z,21.50
2022-07-28T11:02:50.593Z,22.10
2022-07-28T11:05:41.215Z,23.50
2022-07-28T11:08:17.515Z,23.80
2022-07-28T11:10:50.291Z,24.80
2022-07-28T11:13:37.069Z,25.30
2022-07-28T11:16:14.598Z,23.70
2022-07-28T11:19:40.330Z,23.70
2022-07-28T11:22:17.003Z,22.10
2022-07-28T11:24:58.393Z,21.00
2022-07-28T11:27:45.280Z,20.90
2022-07-28T11:30:36.095Z,20.90
2022-07-28T11:33:05.411Z,20.70
2022-07-28T11:35:54.027Z,20.70
2022-07-28T11:38:22.589Z,20.60
2022-07-28T11:40:53.170Z,20.50
2022-07-28T11:43:36.236Z,20.60
2022-07-28T11:46:11.258Z,20.60
2022-07-28T11:48:45.022Z,21.00
2022-07-28T11:51:14.236Z,21.10
2022-07-28T11:53:51.708Z,21.70
2022-07-28T11:56:29.419Z,22.30
2022-07-28T11:59:01.823Z,22.90
2022-07-28T12:01:31.733Z,22.40
2022-07-28T12:04:00.818Z,21.40
2022-07-28T12:06:40.607Z,21.30
2022-07-28T12:09:10.200Z,22.10
2022-07-28T12:11:41.263Z,22.40
2022-07-28T12:14:14.427Z,23.00
2022-07-28T12:16:43.937Z,23.20
2022-07-28T12:19:14.961Z,23.50
2022-07-28T12:21:50.778Z,23.80
2022-07-28T12:24:26.431Z,24.40
2022-07-28T12:26:54.026Z,25.20
2022-07-28T12:29:21.901Z,25.60
2022-07-28T12:31:59.465Z,24.80
2022-07-28T12:34:31.174Z,24.50
2022-07-28T12:37:02.451Z,23.80
2022-07-28T12:39:32.652Z,23.50
2022-07-28T12:42:08.168Z,22.60
2022-07-28T12:44:42.025Z,21.80
2022-07-28T12:47:12.737Z,21.50
2022-07-28T12:49:42.357Z,21.30
2022-07-28T12:52:21.926Z,21.10
2022-07-28T12:54:55.888Z,20.90
2022-07-28T12:57:51.671Z,20.60
2022-07-28T13:00:28.039Z,21.10
2022-07-28T13:02:57.808Z,21.60
2022-07-28T13:05:55.686Z,22.50
2022-07-28T13:08:27.422Z,23.80
2022-07-28T13:10:58.827Z,24.90
2022-07-28T13:13:27.124Z,25.80
2022-07-28T13:16:26.612Z,26.40
2022-07-28T13:18:59.622Z,26.80
2022-07-28T13:21:39.152Z,26.30
2022-07-28T13:24:08.082Z,25.80
2022-07-28T13:26:35.379Z,25.20
2022-07-28T13:29:12.623Z,25.30
2022-07-28T13:31:40.375Z,24.80
2022-07-28T13:34:09.882Z,25.20
2022-07-28T13:36:38.301Z,26.70
2022-07-28T13:39:06.978Z,28.70
2022-07-28T13:41:56.399Z,29.20
2022-07-28T13:44:21.710Z,28.20
2022-07-28T13:46:50.003Z,28.80
2022-07-28T13:49:17.887Z,28.10
2022-07-28T13:51:51.088Z,27.40
2022-07-28T13:54:20.036Z,28.20
2022-07-28T13:56:48.212Z,29.60
2022-07-28T13:59:15.782Z,28.40
2022-07-28T14:01:43.362Z,25.20
2022-07-28T14:04:14.777Z,23.50
2022-07-28T14:06:48.576Z,22.70
2022-07-28T14:09:18.250Z,21.70
2022-07-28T14:11:49.635Z,21.50
2022-07-28T14:14:23.928Z,21.20
2022-07-28T14:16:55.767Z,21.00
2022-07-28T14:19:38.259Z,21.00
2022-07-28T14:22:13.163Z,21.10
2022-07-28T14:24:42.085Z,21.20
2022-07-28T14:27:10.378Z,21.20
2022-07-28T14:29:38.750Z,21.30
2022-07-28T14:32:06.693Z,21.20
2022-07-28T14:34:34.395Z,21.00
2022-07-28T14:37:03.453Z,21.00
2022-07-28T14:39:36.189Z,20.90
2022-07-28T14:42:04.502Z,20.90
2022-07-28T14:44:31.823Z,20.70
2022-07-28T14:46:59.277Z,20.70
2022-07-28T14:49:26.664Z,20.60
2022-07-28T14:51:56.241Z,20.50
2022-07-28T14:54:23.640Z,20.60
2022-07-28T14:56:51.232Z,20.50
2022-07-28T14:59:18.570Z,20.30
2022-07-28T15:01:48.836Z,20.10
2022-07-28T15:04:17.533Z,20.10
2022-07-28T15:06:45.279Z,20.10
2022-07-28T15:09:12.738Z,19.90
2022-07-28T15:11:41.561Z,19.90
2022-07-28T15:14:09.057Z,19.80
2022-07-28T15:16:36.541Z,19.80
2022-07-28T15:19:04.195Z,19.70
2022-07-28T15:21:36.142Z,19.70
2022-07-28T15:24:04.683Z,19.60
2022-07-28T15:26:31.941Z,19.50
2022-07-28T15:28:59.545Z,19.40
2022-07-28T15:31:30.153Z,19.50
2022-07-28T15:33:58.365Z,19.60
2022-07-28T15:36:26.063Z,19.60
2022-07-28T15:38:54.559Z,19.50
2022-07-28T15:41:22.007Z,19.60
2022-07-28T15:43:49.472Z,19.70
2022-07-28T15:46:16.931Z,19.90
2022-07-28T15:48:45.556Z,20.00
2022-07-28T15:51:13.162Z,19.90
2022-07-28T15:53:41.419Z,19.70
2022-07-28T15:56:09.152Z,19.80
2022-07-28T15:58:36.906Z,19.80
2022-07-28T16:01:04.543Z,19.90
2022-07-28T16:03:31.906Z,20.00
2022-07-28T16:05:59.466Z,19.80
2022-07-28T16:08:27.218Z,19.80
2022-07-28T16:10:55.141Z,20.30
2022-07-28T16:13:32.835Z,21.20
2022-07-28T16:16:08.476Z,22.80
2022-07-28T16:18:37.282Z,23.60
2022-07-28T16:21:06.542Z,25.10
2022-07-28T16:23:34.440Z,25.80
2022-07-28T16:26:02.636Z,24.90
2022-07-28T16:28:29.955Z,24.70
2022-07-28T16:30:57.435Z,24.00
2022-07-28T16:33:24.810Z,23.00
2022-07-28T16:35:52.354Z,21.60
2022-07-28T16:38:20.703Z,20.90
2022-07-28T16:40:48.077Z,20.70
2022-07-28T16:43:15.335Z,20.60
2022-07-28T16:45:42.653Z,20.10
2022-07-28T16:48:10.094Z,20.00
2022-07-28T16:50:37.614Z,19.80
2022-07-28T16:53:07.161Z,19.70
2022-07-28T16:55:34.763Z,19.70
2022-07-28T16:58:02.267Z,19.70
2022-07-28T17:00:29.845Z,19.70
2022-07-28T17:02:57.292Z,19.60
2022-07-28T17:05:25.328Z,19.50
2022-07-28T17:07:52.883Z,19.40
2022-07-28T17:10:21.329Z,19.30
2022-07-28T17:12:55.364Z,19.50
2022-07-28T17:15:23.612Z,19.40
2022-07-28T17:17:56.164Z,19.30
2022-07-28T17:20:25.316Z,19.30
2022-07-28T17:22:52.770Z,19.40
2022-07-28T17:25:56.486Z,19.40
2022-07-28T17:28:07.894Z,19.60
2022-07-28T17:30:35.875Z,19.50
2022-07-28T17:33:08.787Z,19.40
2022-07-28T17:35:37.658Z,19.50
2022-07-28T17:38:08.562Z,19.40
2022-07-28T17:40:38.482Z,19.30
2022-07-28T17:43:06.453Z,19.20
2022-07-28T17:45:33.769Z,19.10
2022-07-28T17:48:01.343Z,18.90
2022-07-28T17:50:28.855Z,18.80
2022-07-28T17:52:56.237Z,18.70
2022-07-28T17:55:39.191Z,18.60
2022-07-28T17:58:29.661Z,18.50
2022-07-28T18:01:09.265Z,18.40
2022-07-28T18:03:58.833Z,18.40
2022-07-28T18:06:38.692Z,18.30
2022-07-28T18:09:10.880Z,18.10
2022-07-28T18:11:56.525Z,18.00
2022-07-28T18:14:30.464Z,17.90
2022-07-28T18:16:58.770Z,17.70
2022-07-28T18:19:27.370Z,17.70
2022-07-28T18:21:56.156Z,17.60
2022-07-28T18:24:24.329Z,17.50
2022-07-28T18:26:52.552Z,17.40
2022-07-28T18:29:21.574Z,17.30
2022-07-28T18:31:51.394Z,17.30
2022-07-28T18:34:19.758Z,17.30
2022-07-28T18:36:52.670Z,17.30
2022-07-28T18:39:20.030Z,17.20
2022-07-28T18:41:48.066Z,17.20
2022-07-28T18:44:19.683Z,17.20
2022-07-28T18:46:48.593Z,17.10
2022-07-28T18:49:16.259Z,17.00
2022-07-28T18:51:45.484Z,16.90
2022-07-28T18:54:15.105Z,17.00
2022-07-28T18:56:45.046Z,16.90
2022-07-28T18:59:12.835Z,16.90
2022-07-28T19:01:40.177Z,16.90
2022-07-28T19:04:08.141Z,16.80
2022-07-28T19:06:36.351Z,16.90
2022-07-28T19:09:04.010Z,16.80
2022-07-28T19:11:32.552Z,16.80
2022-07-28T19:14:00.597Z,16.80
2022-07-28T19:16:28.078Z,16.70
2022-07-28T19:18:55.738Z,16.60
2022-07-28T19:21:24.568Z,16.50
2022-07-28T19:23:53.214Z,16.50
2022-07-28T19:26:21.929Z,16.50
2022-07-28T19:28:49.256Z,16.40
2022-07-28T19:31:16.748Z,16.40
2022-07-28T19:33:44.360Z,16.40
2022-07-28T19:36:13.934Z,16.40
2022-07-28T19:38:42.071Z,16.50
2022-07-28T19:41:10.043Z,16.50
2022-07-28T19:43:37.476Z,16.50
2022-07-28T19:46:05.135Z,16.60
2022-07-28T19:48:32.538Z,16.50
2022-07-28T19:51:00.250Z,16.50
2022-07-28T19:53:31.796Z,16.50
2022-07-28T19:55:59.875Z,16.50
2022-07-28T19:58:28.365Z,16.40
2022-07-28T20:00:56.594Z,16.40
2022-07-28T20:04:02.388Z,16.30
2022-07-28T20:06:12.653Z,16.30
2022-07-28T20:08:40.395Z,16.40
2022-07-28T20:11:08.512Z,16.20
2022-07-28T20:13:36.041Z,16.30
2022-07-28T20:16:03.480Z,16.20
2022-07-28T20:18:30.864Z,16.10
2022-07-28T20:20:58.284Z,16.00
2022-07-28T20:23:25.929Z,16.00
2022-07-28T20:25:53.297Z,15.90
2022-07-28T20:28:21.570Z,15.80
2022-07-28T20:30:49.483Z,15.80
2022-07-28T20:33:17.250Z,15.70
2022-07-28T20:35:44.656Z,15.60
2022-07-28T20:38:11.994Z,15.60
2022-07-28T20:40:39.313Z,15.50
2022-07-28T20:43:06.542Z,15.40
2022-07-28T20:45:34.726Z,15.30
2022-07-28T20:48:02.078Z,15.30
2022-07-28T20:50:29.669Z,15.20
2022-07-28T20:52:56.993Z,15.10
2022-07-28T20:55:24.325Z,15.00
2022-07-28T20:57:53.967Z,14.90
2022-07-28T21:00:22.161Z,14.90
2022-07-28T21:02:49.479Z,14.90
2022-07-28T21:05:35.097Z,14.90
2022-07-28T21:08:05.869Z,14.90
2022-07-28T21:10:34.485Z,14.90
2022-07-28T21:13:01.890Z,14.90
2022-07-28T21:15:29.670Z,14.90
2022-07-28T21:17:57.359Z,14.90
2022-07-28T21:20:25.318Z,14.80
2022-07-28T21:22:52.997Z,14.80
2022-07-28T21:25:20.819Z,14.80
2022-07-28T21:28:06.432Z,14.80
2022-07-28T21:30:33.824Z,14.80
2022-07-28T21:33:01.451Z,14.80
2022-07-28T21:35:29.759Z,14.80
2022-07-28T21:37:57.035Z,14.90
2022-07-28T21:40:24.418Z,14.90
2022-07-28T21:42:52.462Z,14.90
2022-07-28T21:45:19.793Z,14.90
2022-07-28T21:47:47.063Z,14.90
2022-07-28T21:50:15.168Z,15.00
2022-07-28T21:52:42.435Z,15.10
2022-07-28T21:55:10.853Z,15.10
2022-07-28T21:57:38.272Z,15.20
2022-07-28T22:00:10.567Z,15.30
2022-07-28T22:02:38.025Z,15.30
2022-07-28T22:05:08.644Z,15.30
2022-07-28T22:07:35.992Z,15.40
2022-07-28T22:10:03.472Z,15.30
2022-07-28T22:12:31.105Z,15.40
2022-07-28T22:14:58.414Z,15.30
2022-07-28T22:17:25.698Z,15.30
2022-07-28T22:19:53.089Z,15.30
2022-07-28T22:22:20.373Z,15.30
2022-07-28T22:24:47.807Z,15.30
2022-07-28T22:27:15.116Z,15.30
2022-07-28T22:29:43.469Z,15.20
2022-07-28T22:32:18.870Z,15.20
2022-07-28T22:34:56.403Z,15.20
2022-07-28T22:37:23.757Z,15.20
2022-07-28T22:39:51.063Z,15.20
2022-07-28T22:42:18.372Z,15.10
2022-07-28T22:44:45.709Z,15.10
2022-07-28T22:47:13.077Z,15.10
2022-07-28T22:49:40.376Z,15.10
2022-07-28T22:52:07.720Z,15.10
2022-07-28T22:54:39.250Z,15.00
2022-07-28T22:57:07.188Z,15.00
2022-07-28T22:59:38.636Z,15.00
2022-07-28T23:02:07.638Z,14.90
2022-07-28T23:04:37.044Z,14.90
2022-07-28T23:07:04.516Z,14.80
2022-07-28T23:09:39.644Z,14.70
2022-07-28T23:12:08.275Z,14.60
2022-07-28T23:14:35.710Z,14.60
2022-07-28T23:17:03.712Z,14.50
2022-07-28T23:19:31.177Z,14.40
2022-07-28T23:21:58.549Z,14.30
2022-07-28T23:24:25.886Z,14.20
2022-07-28T23:26:53.300Z,14.20
2022-07-28T23:29:20.702Z,14.20
2022-07-28T23:31:48.302Z,14.20
2022-07-28T23:34:16.118Z,14.10
2022-07-28T23:36:44.640Z,14.00
2022-07-28T23:39:11.973Z,13.90
2022-07-28T23:41:39.450Z,13.80
2022-07-28T23:44:06.863Z,13.90
2022-07-28T23:46:34.394Z,13.80
2022-07-28T23:49:01.882Z,13.80
2022-07-28T23:51:32.044Z,13.70
2022-07-28T23:54:16.301Z,13.70
2022-07-28T23:56:44.056Z,13.70
2022-07-28T23:59:14.072Z,13.80
